Time;durP1;ratioP1;P1;durP2;ratioP2;P2;SDS_P1;SDS_P2;PMS_P1;PMS_P2;Temp;Humidity;BMP_temperature;BMP_pressure;BME280_temperature;BME280_humidity;BME280_pressure;Samples;Min_cycle;Max_cycle;Signal;HPM_P1;HPM_P2
2021/07/17 00:01:46;;;;;;;;;13.25;12.00;;;;;19.26;55.96;102181.06;5002306;28;45228;-80
2021/07/17 00:04:12;;;;;;;;;16.75;14.25;;;;;19.26;55.86;102169.50;5002059;28;45360;-81
2021/07/17 00:06:37;;;;;;;;;17.75;15.75;;;;;19.25;55.84;102176.66;4999978;28;46893;-80
2021/07/17 00:09:07;;;;;;;;;17.75;16.00;;;;;19.22;56.21;102173.13;5002071;28;45241;-80
2021/07/17 00:11:33;;;;;;;;;13.75;13.00;;;;;19.21;56.09;102182.06;5003083;28;45413;-81
2021/07/17 00:13:58;;;;;;;;;11.75;11.25;;;;;19.20;56.26;102182.97;5001614;28;45452;-81
2021/07/17 00:16:27;;;;;;;;;15.25;12.25;;;;;19.20;56.01;102183.84;5000321;28;47559;-80
2021/07/17 00:18:56;;;;;;;;;17.50;15.25;;;;;19.21;56.11;102185.59;5002485;28;45428;-81
2021/07/17 00:21:23;;;;;;;;;13.25;13.00;;;;;19.18;56.05;102178.53;4988118;28;45342;-81
2021/07/17 00:23:49;;;;;;;;;18.00;14.75;;;;;19.16;56.58;102182.13;5015015;28;45533;-81
2021/07/17 00:26:15;;;;;;;;;13.25;12.75;;;;;19.11;56.52;102174.22;5016843;28;46195;-81
2021/07/17 00:28:40;;;;;;;;;16.50;15.50;;;;;19.10;56.53;102182.22;5001134;28;45417;-80
2021/07/17 00:31:06;;;;;;;;;15.00;12.00;;;;;19.04;56.50;102179.69;5017523;28;45434;-81
2021/07/17 00:33:31;;;;;;;;;15.75;15.50;;;;;19.03;56.85;102185.91;5009704;28;45389;-81
2021/07/17 00:35:56;;;;;;;;;14.00;12.00;;;;;19.00;57.01;102178.81;5002522;28;45461;-80
2021/07/17 00:38:22;;;;;;;;;20.50;16.00;;;;;19.01;56.94;102179.72;5001522;28;45491;-80
2021/07/17 00:40:47;;;;;;;;;14.00;12.00;;;;;18.98;57.24;102186.00;4997798;28;45206;-80
2021/07/17 00:43:15;;;;;;;;;13.75;12.75;;;;;18.94;56.97;102179.81;5001444;28;45270;-81
2021/07/17 00:45:40;;;;;;;;;16.25;12.75;;;;;18.88;57.45;102174.56;5004111;28;47395;-81
2021/07/17 00:48:06;;;;;;;;;16.00;14.00;;;;;18.83;57.79;102179.09;5021439;28;45224;-80
2021/07/17 00:50:31;;;;;;;;;14.25;12.50;;;;;18.82;57.73;102190.69;5002797;28;45218;-80
2021/07/17 00:52:57;;;;;;;;;13.75;11.75;;;;;18.80;57.75;102184.47;5002270;28;45236;-80
2021/07/17 00:55:26;;;;;;;;;15.50;15.50;;;;;18.77;57.42;102183.66;5020893;28;46597;-80
2021/07/17 00:57:52;;;;;;;;;11.00;10.67;;;;;18.72;57.50;102184.56;5026077;28;45382;-80
2021/07/17 01:00:19;;;;;;;;;15.00;14.00;;;;;18.72;58.00;102189.00;5004471;28;45194;-80
2021/07/17 01:02:57;;;;;;;;;19.25;15.75;;;;;18.77;57.89;102187.19;5000739;28;45572;-81
2021/07/17 01:05:23;;;;;;;;;13.50;12.25;;;;;18.75;57.95;102198.78;5001256;28;45495;-80
2021/07/17 01:07:49;;;;;;;;;15.25;15.00;;;;;18.70;57.95;102199.69;5001762;28;45458;-80
2021/07/17 01:10:17;;;;;;;;;17.50;16.00;;;;;18.73;57.76;102201.44;5001068;28;45450;-80
2021/07/17 01:12:44;;;;;;;;;15.25;15.25;;;;;18.71;58.02;102200.56;5002203;28;45147;-81
2021/07/17 01:15:09;;;;;;;;;17.25;16.25;;;;;18.67;57.80;102201.53;5010024;28;46312;-80
2021/07/17 01:17:38;;;;;;;;;15.00;14.50;;;;;18.70;57.96;102204.16;5007216;28;45423;-81
2021/07/17 01:20:13;;;;;;;;;17.75;16.50;;;;;18.67;58.73;102189.06;4985869;28;45441;-80
2021/07/17 01:22:39;;;;;;;;;19.50;15.75;;;;;18.62;58.30;102185.59;5005271;28;45487;-80
2021/07/17 01:25:11;;;;;;;;;16.25;15.75;;;;;18.59;58.16;102187.41;5024102;28;45491;-80
2021/07/17 01:27:38;;;;;;;;;19.75;17.00;;;;;18.56;58.68;102192.81;5007588;28;45277;-80
2021/07/17 01:30:07;;;;;;;;;18.00;18.00;;;;;18.57;58.50;102181.22;5008316;28;45463;-80
2021/07/17 01:32:32;;;;;;;;;15.50;15.50;;;;;18.59;58.42;102193.63;5005539;28;45455;-81
2021/07/17 01:34:57;;;;;;;;;18.00;15.50;;;;;18.60;58.73;102202.50;4991745;28;47412;-80
2021/07/17 01:37:23;;;;;;;;;19.25;15.25;;;;;18.53;58.52;102188.38;5002630;28;45306;-80
2021/07/17 01:39:48;;;;;;;;;14.25;14.00;;;;;18.54;58.92;102183.94;5013074;28;45459;-80
2021/07/17 01:42:14;;;;;;;;;8.75;8.75;;;;;18.52;58.83;102181.28;5017838;28;45210;-81
2021/07/17 01:44:43;;;;;;;;;18.50;16.25;;;;;18.48;59.16;102177.78;4991187;28;47243;-81
2021/07/17 01:47:10;;;;;;;;;21.00;17.25;;;;;18.41;59.07;102180.53;5020801;28;45431;-81
2021/07/17 01:49:38;;;;;;;;;16.25;13.00;;;;;18.36;59.26;102185.06;5003087;28;45297;-80
2021/07/17 01:52:03;;;;;;;;;16.00;13.75;;;;;18.34;59.32;102171.75;5003211;28;45500;-81
2021/07/17 01:54:37;;;;;;;;;18.75;17.50;;;;;18.31;59.28;102179.81;5000406;28;45281;-81
2021/07/17 01:57:04;;;;;;;;;20.25;17.25;;;;;18.27;59.72;102176.28;5009118;28;45434;-81
2021/07/17 01:59:34;;;;;;;;;16.25;15.00;;;;;18.25;59.79;102174.53;4995553;28;45309;-80
2021/07/17 02:02:00;;;;;;;;;18.00;16.00;;;;;18.23;59.88;102187.88;5008644;28;45386;-80
2021/07/17 02:04:27;;;;;;;;;15.00;14.00;;;;;18.15;59.97;102186.19;5002628;28;46723;-80
2021/07/17 02:06:53;;;;;;;;;18.50;17.25;;;;;18.12;60.25;102179.13;5003427;28;46111;-80
2021/07/17 02:09:18;;;;;;;;;15.75;14.00;;;;;18.12;60.03;102179.13;4989731;28;45271;-80
2021/07/17 02:11:46;;;;;;;;;15.75;15.50;;;;;18.10;60.44;102186.28;5003439;28;45290;-81
2021/07/17 02:14:11;;;;;;;;;15.75;14.75;;;;;18.06;60.63;102187.19;5018825;28;45528;-81
2021/07/17 02:16:39;;;;;;;;;19.00;18.75;;;;;18.01;61.24;102183.69;5000456;28;45214;-80
2021/07/17 02:19:16;;;;;;;;;18.75;15.00;;;;;17.94;60.81;102180.25;4993710;28;45433;-81
2021/07/17 02:21:42;;;;;;;;;18.50;15.75;;;;;17.87;60.78;102183.84;4999523;28;45296;-81
2021/07/17 02:24:07;;;;;;;;;18.00;16.00;;;;;17.88;61.47;102185.59;5012914;28;47154;-80
2021/07/17 02:26:33;;;;;;;;;15.75;15.75;;;;;17.82;62.07;102191.00;5012057;28;45272;-80
2021/07/17 02:28:58;;;;;;;;;16.25;15.75;;;;;17.76;61.54;102180.41;4999913;28;45170;-80
2021/07/17 02:31:23;;;;;;;;;18.25;17.50;;;;;17.76;61.46;102185.72;4996320;28;45568;-80
2021/07/17 02:33:49;;;;;;;;;17.75;17.25;;;;;17.77;61.42;102179.50;5000372;28;46762;-80
2021/07/17 02:36:16;;;;;;;;;24.25;19.50;;;;;17.77;62.59;102176.81;5000159;28;45270;-80
2021/07/17 02:38:42;;;;;;;;;16.75;14.75;;;;;17.71;61.62;102174.22;5000497;28;45348;-81
2021/07/17 02:41:07;;;;;;;;;19.00;17.25;;;;;17.71;61.88;102174.22;4999978;28;45227;-79
2021/07/17 02:43:35;;;;;;;;;23.25;18.50;;;;;17.75;61.89;102179.53;5000164;28;45592;-79
2021/07/17 02:46:00;;;;;;;;;22.25;17.50;;;;;17.70;61.89;102176.03;5008876;28;45451;-79
2021/07/17 02:48:25;;;;;;;;;19.25;14.50;;;;;17.67;61.69;102172.47;5002449;28;45318;-79
2021/07/17 02:50:51;;;;;;;;;18.25;15.75;;;;;17.65;61.95;102172.53;5011385;28;45480;-79
2021/07/17 02:53:16;;;;;;;;;16.25;15.00;;;;;17.61;62.16;102182.34;5000815;28;45286;-79
2021/07/17 02:55:42;;;;;;;;;17.25;14.75;;;;;17.58;62.58;102176.13;4999909;28;45401;-78
2021/07/17 02:58:07;;;;;;;;;17.75;17.00;;;;;17.56;62.13;102184.16;5007367;28;45289;-79
2021/07/17 03:00:34;;;;;;;;;20.75;19.75;;;;;17.55;62.55;102178.81;4987383;28;45849;-79
2021/07/17 03:03:00;;;;;;;;;22.25;19.25;;;;;17.57;62.17;102188.56;5000401;28;46349;-79
2021/07/17 03:05:25;;;;;;;;;18.25;16.00;;;;;17.58;62.53;102178.78;4999706;28;45213;-79
2021/07/17 03:07:51;;;;;;;;;16.00;15.50;;;;;17.59;62.23;102180.56;4994964;28;45425;-79
2021/07/17 03:10:16;;;;;;;;;16.00;14.00;;;;;17.59;62.60;102178.78;4999841;28;45234;-80
2021/07/17 03:12:42;;;;;;;;;19.00;17.50;;;;;17.57;62.70;102182.38;5000023;28;45329;-79
2021/07/17 03:15:08;;;;;;;;;20.50;16.75;;;;;17.58;62.34;102189.44;4991024;28;46264;-79
2021/07/17 03:17:33;;;;;;;;;20.00;19.00;;;;;17.63;62.59;102190.28;5016736;28;45364;-80
2021/07/17 03:19:59;;;;;;;;;18.50;17.75;;;;;17.64;62.50;102184.97;5000389;28;45411;-79
2021/07/17 03:22:24;;;;;;;;;20.25;18.00;;;;;17.64;61.97;102178.72;4999300;28;45449;-79
2021/07/17 03:24:49;;;;;;;;;22.00;19.25;;;;;17.62;62.19;102180.53;5020008;28;45437;-79
2021/07/17 03:27:15;;;;;;;;;21.75;19.00;;;;;17.60;62.81;102175.22;4987575;28;45448;-79
2021/07/17 03:29:40;;;;;;;;;19.75;18.50;;;;;17.58;62.32;102170.81;5000033;28;45376;-80
2021/07/17 03:32:06;;;;;;;;;25.00;22.00;;;;;17.58;62.57;102177.00;5008422;28;46417;-79
2021/07/17 03:34:32;;;;;;;;;22.50;18.25;;;;;17.58;62.35;102177.00;5005140;28;45400;-80
2021/07/17 03:36:59;;;;;;;;;17.25;15.50;;;;;17.62;62.49;102180.53;5021840;28;45473;-79
2021/07/17 03:39:25;;;;;;;;;20.25;18.00;;;;;17.58;62.53;102178.78;5003135;28;45234;-80
2021/07/17 03:41:50;;;;;;;;;22.75;18.00;;;;;17.62;62.72;102188.53;4994874;28;47212;-79
2021/07/17 03:44:17;;;;;;;;;20.25;19.50;;;;;17.59;62.86;102184.13;4992420;28;45621;-80
2021/07/17 03:46:42;;;;;;;;;21.50;18.00;;;;;17.61;62.89;102178.75;5022996;28;45474;-79
2021/07/17 03:49:07;;;;;;;;;22.00;18.25;;;;;17.68;62.77;102175.16;5023191;28;45252;-79
2021/07/17 03:51:33;;;;;;;;;18.50;16.25;;;;;17.73;62.70;102178.66;5021738;28;45933;-80
2021/07/17 03:53:58;;;;;;;;;20.50;17.50;;;;;17.79;62.55;102181.28;5003678;28;45411;-80
2021/07/17 03:56:24;;;;;;;;;18.50;16.75;;;;;17.84;62.54;102184.78;5002742;28;45423;-79
2021/07/17 03:58:49;;;;;;;;;17.33;15.33;;;;;17.89;62.20;102173.19;5011541;28;45407;-80
2021/07/17 04:01:17;;;;;;;;;17.25;17.00;;;;;17.93;62.04;102186.44;5008271;28;46317;-79
2021/07/17 04:03:50;;;;;;;;;19.75;16.25;;;;;17.92;62.14;102190.03;5002290;28;45456;-80
2021/07/17 04:06:15;;;;;;;;;15.75;15.75;;;;;17.92;62.26;102184.69;5003038;28;45423;-79
2021/07/17 04:08:41;;;;;;;;;18.75;18.00;;;;;17.89;62.42;102189.19;5001985;28;45340;-79
2021/07/17 04:11:06;;;;;;;;;18.75;18.00;;;;;17.85;62.42;102193.63;5002641;28;45406;-78
2021/07/17 04:13:32;;;;;;;;;19.25;15.75;;;;;17.79;62.43;102183.94;5001881;28;45469;-79
2021/07/17 04:15:57;;;;;;;;;20.00;16.25;;;;;17.78;62.39;102194.59;5002607;28;45250;-79
2021/07/17 04:18:23;;;;;;;;;21.00;20.25;;;;;17.76;62.41;102189.25;4993762;28;45536;-79
2021/07/17 04:20:48;;;;;;;;;22.50;20.00;;;;;17.72;63.01;102195.53;5018862;28;45305;-79
2021/07/17 04:23:13;;;;;;;;;22.75;18.50;;;;;17.74;62.64;102195.50;4986608;28;45426;-79
2021/07/17 04:25:39;;;;;;;;;17.75;17.25;;;;;17.75;62.35;102192.84;5015354;28;45351;-79
2021/07/17 04:28:09;;;;;;;;;19.00;16.50;;;;;17.75;62.82;102191.94;4988157;28;45725;-80
2021/07/17 04:30:36;;;;;;;;;21.00;18.00;;;;;17.75;62.22;102195.50;5012115;28;45521;-79
2021/07/17 04:33:02;;;;;;;;;17.50;15.75;;;;;17.71;63.06;102195.53;5013452;28;45347;-79
2021/07/17 04:35:27;;;;;;;;;17.00;17.00;;;;;17.59;62.58;102189.44;4999016;28;45386;-80
2021/07/17 04:37:53;;;;;;;;;19.75;16.75;;;;;17.60;63.07;102196.53;5003483;28;45279;-80
2021/07/17 04:40:18;;;;;;;;;18.50;16.75;;;;;17.55;63.20;102195.69;4990439;28;47560;-79
2021/07/17 04:42:44;;;;;;;;;20.75;17.50;;;;;17.54;63.42;102190.38;5014054;28;45195;-79
2021/07/17 04:45:09;;;;;;;;;20.50;17.00;;;;;17.55;63.88;102197.47;5001894;28;45296;-79
2021/07/17 04:47:36;;;;;;;;;16.75;15.25;;;;;17.55;63.33;102193.03;5009761;28;45292;-80
2021/07/17 04:50:02;;;;;;;;;18.50;16.25;;;;;17.60;63.46;102192.97;5006642;28;45426;-80
2021/07/17 04:52:29;;;;;;;;;23.50;20.75;;;;;17.60;63.07;102191.19;5002327;28;45467;-80
2021/07/17 04:54:55;;;;;;;;;19.75;16.75;;;;;17.66;63.44;102205.34;5001527;28;45461;-79
2021/07/17 04:57:20;;;;;;;;;17.50;17.00;;;;;17.71;63.33;102204.41;4992027;28;45457;-79
2021/07/17 04:59:46;;;;;;;;;21.00;19.25;;;;;17.76;63.10;102207.03;5014545;28;46066;-80
2021/07/17 05:02:11;;;;;;;;;19.50;18.25;;;;;17.83;63.13;102206.13;5010898;28;45371;-79
2021/07/17 05:04:36;;;;;;;;;18.50;16.00;;;;;17.85;62.82;102205.22;5006707;28;45296;-79
2021/07/17 05:07:02;;;;;;;;;22.75;16.75;;;;;17.88;62.94;102211.38;4989458;28;45778;-80
2021/07/17 05:09:28;;;;;;;;;20.75;19.00;;;;;17.91;62.95;102217.59;5000905;28;46026;-79
2021/07/17 05:11:53;;;;;;;;;18.25;16.25;;;;;17.93;62.52;102217.53;5002654;28;45229;-80
2021/07/17 05:14:18;;;;;;;;;20.75;19.75;;;;;17.90;62.61;102213.13;4999817;28;45295;-80
2021/07/17 05:16:46;;;;;;;;;23.50;20.50;;;;;17.89;62.69;102211.38;5003768;28;45246;-79
2021/07/17 05:19:16;;;;;;;;;21.00;18.75;;;;;17.94;62.86;102225.53;5004056;28;45366;-80
2021/07/17 05:21:42;;;;;;;;;16.75;16.00;;;;;17.92;62.31;102222.00;5011248;28;45360;-79
2021/07/17 05:24:07;;;;;;;;;21.00;18.25;;;;;17.95;62.71;102213.09;5021804;28;45780;-80
2021/07/17 05:26:32;;;;;;;;;22.00;18.75;;;;;18.00;62.74;102211.25;5005275;28;45412;-80
2021/07/17 05:29:00;;;;;;;;;20.00;18.50;;;;;18.03;62.48;102212.09;5019656;28;46317;-80
2021/07/17 05:31:26;;;;;;;;;21.50;19.75;;;;;18.09;62.43;102213.81;5016767;28;45341;-80
2021/07/17 05:33:51;;;;;;;;;18.25;17.25;;;;;18.18;62.48;102208.38;5006208;28;45284;-80
2021/07/17 05:36:16;;;;;;;;;20.25;16.75;;;;;18.23;62.33;102209.22;4987553;28;45544;-80
2021/07/17 05:38:42;;;;;;;;;18.25;16.75;;;;;18.25;61.91;102212.72;5000376;28;45324;-80
2021/07/17 05:41:07;;;;;;;;;21.75;20.25;;;;;18.26;62.24;102209.19;5001806;28;45258;-80
2021/07/17 05:43:33;;;;;;;;;20.50;18.00;;;;;18.28;61.87;102209.13;4994240;28;45788;-80
2021/07/17 05:45:58;;;;;;;;;20.50;18.50;;;;;18.30;62.18;102205.56;5009288;28;45512;-80
2021/07/17 05:48:26;;;;;;;;;22.00;22.00;;;;;18.36;62.22;102196.59;5001917;28;46213;-80
2021/07/17 05:50:51;;;;;;;;;19.50;17.50;;;;;18.40;61.84;102194.78;5012197;28;45347;-80
2021/07/17 05:53:17;;;;;;;;;20.25;18.00;;;;;18.41;62.04;102192.09;5000138;28;45253;-80
2021/07/17 05:55:42;;;;;;;;;23.75;20.25;;;;;18.46;61.78;102200.03;4987321;28;45820;-79
2021/07/17 05:58:08;;;;;;;;;21.50;19.50;;;;;18.47;61.66;102204.44;5008407;28;45572;-80
2021/07/17 06:00:36;;;;;;;;;22.75;20.00;;;;;18.49;61.64;102208.88;4992905;28;45397;-80
2021/07/17 06:03:01;;;;;;;;;21.25;18.75;;;;;18.44;62.08;102199.16;5005566;28;45434;-80
2021/07/17 06:05:27;;;;;;;;;18.25;16.25;;;;;18.45;62.05;102212.50;5003407;28;45392;-80
2021/07/17 06:07:55;;;;;;;;;20.75;20.50;;;;;18.47;61.90;102209.78;5007639;28;45222;-80
2021/07/17 06:10:20;;;;;;;;;20.00;18.25;;;;;18.40;62.35;102201.00;5010792;28;45471;-80
2021/07/17 06:12:45;;;;;;;;;24.50;21.50;;;;;18.46;62.50;102210.69;5000693;28;45408;-80
2021/07/17 06:15:12;;;;;;;;;15.25;13.50;;;;;18.55;62.04;102210.59;4999904;28;45541;-81
2021/07/17 06:17:37;;;;;;;;;21.00;18.75;;;;;18.54;61.92;102199.94;4998423;28;47924;-80
2021/07/17 06:20:03;;;;;;;;;20.00;19.00;;;;;18.65;61.75;102209.53;5001827;28;45869;-81
2021/07/17 06:22:29;;;;;;;;;21.00;20.00;;;;;18.63;61.83;102207.78;4988008;28;45525;-81
2021/07/17 06:24:54;;;;;;;;;22.50;21.00;;;;;18.59;62.18;102208.75;5006373;28;45649;-81
2021/07/17 06:27:19;;;;;;;;;25.75;22.25;;;;;18.63;61.86;102222.03;5006203;28;46443;-80
2021/07/17 06:29:45;;;;;;;;;20.50;19.00;;;;;18.62;61.97;102217.59;4987466;28;45596;-79
2021/07/17 06:32:10;;;;;;;;;23.75;22.25;;;;;18.56;62.24;102220.34;5023089;28;45275;-80
2021/07/17 06:34:36;;;;;;;;;22.75;19.25;;;;;18.60;61.98;102215.84;5001331;28;46101;-80
2021/07/17 06:37:03;;;;;;;;;23.25;21.00;;;;;18.64;62.41;102215.78;5013800;28;46209;-80
2021/07/17 06:39:29;;;;;;;;;19.00;19.00;;;;;18.59;62.43;102219.44;4990700;28;46119;-79
2021/07/17 06:41:54;;;;;;;;;19.50;18.50;;;;;18.59;62.53;102216.75;5018189;28;45440;-79
2021/07/17 06:44:20;;;;;;;;;22.50;20.25;;;;;18.67;61.92;102230.88;5000016;28;45710;-78
2021/07/17 06:46:47;;;;;;;;;26.50;24.00;;;;;18.77;61.83;102239.69;5014399;28;45434;-79
2021/07/17 06:49:13;;;;;;;;;25.75;22.25;;;;;18.81;61.93;102228.03;4993493;28;45298;-78
2021/07/17 06:51:38;;;;;;;;;21.25;19.00;;;;;18.73;62.12;102229.00;4999713;28;46623;-80
2021/07/17 06:54:04;;;;;;;;;28.50;24.25;;;;;18.69;62.50;102235.28;5001082;28;45198;-79
2021/07/17 06:56:29;;;;;;;;;24.00;21.00;;;;;18.64;62.59;102233.59;5006023;28;45833;-79
2021/07/17 06:58:56;;;;;;;;;21.25;19.50;;;;;18.63;62.60;102237.13;5001198;28;45309;-79
2021/07/17 07:01:23;;;;;;;;;28.25;24.25;;;;;18.64;62.51;102245.13;4999969;28;45244;-79
2021/07/17 07:03:48;;;;;;;;;20.75;19.75;;;;;18.65;62.29;102244.22;5000457;28;45456;-78
2021/07/17 07:06:14;;;;;;;;;26.75;23.00;;;;;18.67;62.30;102253.09;4999245;28;46191;-78
2021/07/17 07:08:39;;;;;;;;;26.25;23.75;;;;;18.68;62.04;102246.88;4995554;28;45346;-79
2021/07/17 07:11:05;;;;;;;;;24.50;24.25;;;;;18.72;62.43;102248.59;5020041;28;46045;-78
2021/07/17 07:13:30;;;;;;;;;28.50;24.50;;;;;18.72;62.18;102248.59;5004020;28;45333;-80
2021/07/17 07:15:56;;;;;;;;;31.00;26.25;;;;;18.75;62.34;102244.16;5002193;28;46430;-80
2021/07/17 07:18:21;;;;;;;;;28.00;24.50;;;;;18.79;62.66;102241.44;4990875;28;45348;-80
2021/07/17 07:20:48;;;;;;;;;26.75;20.00;;;;;18.82;62.82;102245.81;5003301;28;45465;-80
2021/07/17 07:23:15;;;;;;;;;25.25;22.25;;;;;18.86;62.51;102243.09;4993633;28;45279;-80
2021/07/17 07:25:42;;;;;;;;;25.00;22.75;;;;;18.92;62.37;102243.03;5022887;28;45262;-80
2021/07/17 07:28:07;;;;;;;;;28.75;26.25;;;;;18.95;62.66;102242.97;4995611;28;45179;-80
2021/07/17 07:30:35;;;;;;;;;29.00;25.75;;;;;19.06;62.22;102256.16;5028360;28;45526;-79
2021/07/17 07:33:01;;;;;;;;;26.00;24.00;;;;;19.11;62.46;102250.72;5014237;28;45518;-79
2021/07/17 07:35:27;;;;;;;;;26.50;24.75;;;;;19.17;62.37;102254.22;5002349;28;46350;-79
2021/07/17 07:37:56;;;;;;;;;25.00;24.25;;;;;19.29;62.11;102262.94;4989158;28;45387;-77
2021/07/17 07:40:24;;;;;;;;;32.00;23.25;;;;;19.37;62.07;102266.34;4997783;28;45203;-77
2021/07/17 07:42:49;;;;;;;;;24.75;23.25;;;;;19.46;61.53;102265.31;4992645;28;45513;-77
2021/07/17 07:45:15;;;;;;;;;32.00;23.50;;;;;19.51;61.73;102261.69;4991148;28;48552;-77
2021/07/17 07:47:41;;;;;;;;;27.75;25.25;;;;;19.52;61.23;102254.56;5004507;28;45400;-78
2021/07/17 07:50:08;;;;;;;;;25.25;23.00;;;;;19.58;60.94;102252.63;5005441;28;45509;-78
2021/07/17 07:52:34;;;;;;;;;27.25;24.50;;;;;19.76;61.16;102267.53;5012640;28;45248;-80
2021/07/17 07:55:00;;;;;;;;;27.00;23.00;;;;;19.88;60.41;102268.19;5002299;28;45241;-81
2021/07/17 07:57:26;;;;;;;;;27.50;22.50;;;;;19.94;60.12;102265.41;5001800;28;45292;-79
2021/07/17 07:59:51;;;;;;;;;30.25;25.25;;;;;20.04;60.43;102269.69;5021781;28;45236;-79
2021/07/17 08:02:17;;;;;;;;;24.75;22.00;;;;;20.08;60.05;102266.06;5021404;28;45210;-79
2021/07/17 08:04:42;;;;;;;;;24.00;21.25;;;;;20.19;59.98;102263.19;5004024;28;48144;-79
2021/07/17 08:07:08;;;;;;;;;23.50;19.50;;;;;20.28;59.48;102268.31;5021527;28;45331;-79
2021/07/17 08:09:34;;;;;;;;;28.00;26.75;;;;;20.38;59.42;102263.69;5022145;28;45435;-79
2021/07/17 08:12:02;;;;;;;;;19.25;18.25;;;;;20.46;59.47;102267.97;5003243;28;45463;-79
2021/07/17 08:14:27;;;;;;;;;23.75;22.50;;;;;20.52;58.97;102266.94;5017789;28;45444;-79
2021/07/17 08:16:52;;;;;;;;;28.75;22.25;;;;;20.61;58.50;102272.16;4999902;28;45344;-78
2021/07/17 08:19:18;;;;;;;;;24.50;21.75;;;;;20.70;58.63;102269.28;5001243;28;45325;-79
2021/07/17 08:21:44;;;;;;;;;25.75;23.50;;;;;20.79;58.41;102272.66;4986772;28;45496;-79
2021/07/17 08:24:11;;;;;;;;;22.75;21.75;;;;;20.82;58.44;102268.16;4996814;28;45434;-80
2021/07/17 08:26:37;;;;;;;;;23.25;22.75;;;;;20.86;57.90;102266.28;4996085;28;45344;-80
2021/07/17 08:29:04;;;;;;;;;22.50;20.25;;;;;20.89;58.10;102255.50;4994968;28;45238;-80
2021/07/17 08:31:29;;;;;;;;;25.50;21.75;;;;;20.90;58.09;102262.59;4994697;28;46045;-80
2021/07/17 08:33:55;;;;;;;;;23.50;23.50;;;;;20.92;57.77;102258.09;4981612;28;46019;-80
2021/07/17 08:36:20;;;;;;;;;30.75;26.25;;;;;21.02;58.22;102251.63;4986037;28;45404;-80
2021/07/17 08:38:46;;;;;;;;;21.75;21.75;;;;;21.14;58.08;102251.34;4982091;28;45344;-79
2021/07/17 08:41:12;;;;;;;;;18.00;18.00;;;;;21.22;57.45;102252.94;4981908;28;45445;-80
2021/07/17 08:43:40;;;;;;;;;27.75;23.25;;;;;21.28;57.48;102256.38;4981852;28;46123;-80
2021/07/17 08:46:06;;;;;;;;;21.75;21.00;;;;;21.31;57.52;102258.09;4991062;28;45299;-79
2021/07/17 08:48:35;;;;;;;;;24.25;21.75;;;;;21.38;57.29;102262.38;5001415;28;45426;-78
2021/07/17 08:51:01;;;;;;;;;24.00;21.75;;;;;21.43;57.48;102259.59;4991082;28;45421;-79
2021/07/17 08:53:28;;;;;;;;;24.00;21.25;;;;;21.52;57.35;102271.00;4993729;28;47452;-79
2021/07/17 08:55:54;;;;;;;;;22.25;20.75;;;;;21.62;56.86;102268.06;4982045;28;45410;-79
2021/07/17 08:58:20;;;;;;;;;25.75;22.25;;;;;21.75;56.91;102265.03;4998845;28;45241;-78
2021/07/17 09:00:46;;;;;;;;;29.25;26.50;;;;;21.80;56.65;102257.75;4981308;28;45206;-78
2021/07/17 09:03:18;;;;;;;;;25.00;24.25;;;;;21.94;56.23;102257.38;4994629;28;47985;-79
2021/07/17 09:05:49;;;;;;;;;24.25;21.50;;;;;22.08;56.03;102264.16;4996159;28;45298;-79
2021/07/17 09:08:19;;;;;;;;;25.25;24.25;;;;;22.21;55.71;102269.19;4995203;28;45525;-78
2021/07/17 09:10:46;;;;;;;;;24.00;24.00;;;;;22.26;55.07;102260.13;4980780;28;45510;-79
2021/07/17 09:13:23;;;;;;;;;22.25;20.50;;;;;22.22;55.29;102262.03;4981108;28;45479;-79
2021/07/17 09:15:49;;;;;;;;;22.50;21.00;;;;;22.23;55.04;102261.09;4980191;28;45398;-79
2021/07/17 09:18:23;;;;;;;;;23.25;20.00;;;;;22.29;55.32;102257.34;4981152;28;45323;-79
2021/07/17 09:21:17;;;;;;;;;21.25;20.75;;;;;22.53;55.11;102259.31;4986622;28;45525;-79
2021/07/17 09:23:55;;;;;;;;;24.50;22.50;;;;;22.79;54.96;102246.94;5011542;28;45206;-79
2021/07/17 09:26:25;;;;;;;;;23.50;21.75;;;;;22.97;53.75;102251.75;4995650;28;45463;-79
2021/07/17 09:28:58;;;;;;;;;25.25;24.75;;;;;23.04;54.10;102249.75;5013982;28;45182;-79
2021/07/17 09:31:26;;;;;;;;;23.25;23.25;;;;;23.16;53.98;102251.19;5023408;28;45168;-78
2021/07/17 09:34:00;;;;;;;;;20.50;20.50;;;;;23.27;52.99;102249.00;5001983;28;46933;-78
2021/07/17 09:36:25;;;;;;;;;17.25;17.25;;;;;23.29;53.46;102241.78;5001156;28;45214;-79
2021/07/17 09:38:51;;;;;;;;;22.00;18.75;;;;;23.38;52.95;102243.28;5017228;28;45262;-78
2021/07/17 09:41:19;;;;;;;;;24.50;22.75;;;;;23.33;52.66;102244.34;4982547;28;45999;-82
2021/07/17 09:43:44;;;;;;;;;26.25;18.25;;;;;23.30;52.07;102244.41;5003800;28;46348;-81
2021/07/17 09:46:23;;;;;;;;;27.25;23.25;;;;;23.29;52.37;102244.47;4992366;28;45645;-79
2021/07/17 09:48:54;;;;;;;;;25.00;23.75;;;;;23.36;52.31;102237.94;5015882;28;45454;-82
2021/07/17 09:51:28;;;;;;;;;22.50;20.25;;;;;23.40;52.10;102241.44;4999930;28;45375;-83
2021/07/17 09:54:00;;;;;;;;;17.50;16.50;;;;;23.41;52.03;102233.31;5006921;28;45440;-81
2021/07/17 09:56:28;;;;;;;;;24.75;21.50;;;;;23.40;51.97;102233.38;5004247;28;45737;-81
2021/07/17 09:58:59;;;;;;;;;23.00;22.00;;;;;23.44;52.46;102235.91;4999800;28;45428;-80
2021/07/17 10:01:33;;;;;;;;;20.75;20.50;;;;;23.52;52.45;102236.53;5000049;28;45494;-80
2021/07/17 10:04:06;;;;;;;;;24.50;22.25;;;;;23.58;51.70;102238.13;4991742;28;47300;-79
2021/07/17 10:06:59;;;;;;;;;22.50;21.00;;;;;23.57;52.36;102228.28;5015231;28;45349;-82
2021/07/17 10:09:25;;;;;;;;;23.75;20.00;;;;;23.67;51.77;102231.53;4999813;28;45447;-78
2021/07/17 10:11:58;;;;;;;;;24.50;22.75;;;;;23.77;51.81;102228.50;5000512;28;45451;-85
2021/07/17 10:14:28;;;;;;;;;18.50;18.50;;;;;23.84;51.05;102231.84;4999348;28;45664;-83
2021/07/17 10:16:55;;;;;;;;;21.50;21.00;;;;;23.86;50.97;102229.97;4988956;28;45334;-80
2021/07/17 10:19:26;;;;;;;;;18.00;17.00;;;;;23.96;49.52;102234.09;4999493;28;45277;-80
2021/07/17 10:21:53;;;;;;;;;18.50;17.75;;;;;23.92;50.52;102227.09;4999306;28;45337;-78
2021/07/17 10:24:21;;;;;;;;;22.00;20.25;;;;;24.04;50.91;102231.16;5014023;28;45299;-79
2021/07/17 10:26:49;;;;;;;;;19.75;19.25;;;;;24.14;50.31;102231.69;5001569;28;45182;-81
2021/07/17 10:29:18;;;;;;;;;23.50;20.50;;;;;24.16;49.08;102229.81;5014904;28;45339;-80
2021/07/17 10:31:45;;;;;;;;;22.75;20.50;;;;;24.02;49.55;102237.50;5019614;28;45237;-81
2021/07/17 10:34:11;;;;;;;;;24.50;22.00;;;;;23.90;50.11;102238.84;5001059;28;46019;-79
2021/07/17 10:37:02;;;;;;;;;25.00;23.00;;;;;23.83;50.47;102238.16;4999578;28;45242;-80
2021/07/17 10:39:32;;;;;;;;;22.50;21.50;;;;;23.73;49.94;102234.91;5006750;28;45360;-80
2021/07/17 10:41:59;;;;;;;;;21.25;19.50;;;;;23.69;49.96;102237.75;5000339;28;45273;-80
2021/07/17 10:44:55;;;;;;;;;20.00;19.25;;;;;23.74;50.26;102235.81;4984222;28;46447;-79
2021/07/17 10:47:22;;;;;;;;;23.25;21.25;;;;;23.84;49.90;102234.53;5022671;28;45466;-81
2021/07/17 10:49:52;;;;;;;;;22.50;19.00;;;;;23.90;49.16;102226.28;5023189;28;45332;-83
2021/07/17 10:52:40;;;;;;;;;21.75;17.75;;;;;23.89;49.68;102224.50;5002858;28;45260;-82
2021/07/17 10:55:29;;;;;;;;;26.25;23.75;;;;;23.98;49.50;102224.19;4998753;28;46260;-82
2021/07/17 10:58:00;;;;;;;;;19.25;19.25;;;;;24.01;48.57;102231.25;5008960;28;45248;-81
2021/07/17 11:00:46;;;;;;;;;20.00;19.00;;;;;24.13;49.41;102228.09;4993800;28;45437;-81
2021/07/17 11:03:28;;;;;;;;;23.75;20.50;;;;;24.28;48.64;102229.34;5004926;28;45517;-81
2021/07/17 11:05:53;;;;;;;;;19.00;18.00;;;;;24.37;48.86;102222.75;5003156;28;45425;-81
2021/07/17 11:08:37;;;;;;;;;20.75;19.50;;;;;24.40;48.43;102228.91;5001091;28;45279;-81
2021/07/17 11:11:27;;;;;;;;;23.25;20.50;;;;;24.31;48.76;102222.97;5000439;28;45254;-81